Vadodara Airport
VABO : now visible

Airfield :











YOU CAN JOIN US ON...

 
LOGIN :

Register | Disclaimer

   EN    FR    IT 

 









Legend :    VFR   Marginal VFR   IFR   Intensive IFR   Very Intensive IFR
Visi :
Ceiling :
>= 8 km
>= 3000ft
5 to 8 km
1000 to 3000 ft
1500m to 5 km
500 to 1000 ft
800 to 1500m
200 to 500 ft
< 800m
< 200 ft
Symbols :   Thunderstorms  Fog  Heavy snow  Heavy precipitations  Wind > 20 kt






- Airport Elevation : 129 ft
- IATA code : BDQ


VABO - Vadodara

CURRENT METAR :
  • 200930Z 30005KT 6000 SCT020 33/26 Q0999 NOSIG

EXPIRED METARs :
  • 200900Z 07005KT 5000 HZ SCT020 SCT025 33/26 Q1000 NOSIG
  • 200830Z 29006KT 5000 HZ SCT020 SCT025 BKN080 32/25 Q1001 NOSIG
  • 200800Z 30004KT 5000 HZ SCT020 SCT025 BKN080 32/25 Q1001 NOSIG
  • 200730Z 07006KT 6000 FEW020 SCT080 32/25 Q1001 NOSIG
  • 200700Z 07006KT 6000 FEW020 SCT080 31/25 Q1002 NOSIG

TAF TAF VABO
Valid from the 20 at 09:00 until the 20 at 18:00 UTC


200800Z 2009/2018 30006KT 6000 SCT020 SCT080
BECMG 2012/2014 27005KT 4000 HZ
TEMPO 2012/2016 2500 -TSRA -RA SCT012 SCT020 FEW030CB BKN080
VABF FIR / Asia



MET'MAP, your aeronautical weather chart ! - Copyright ORBIFLY December 2007 - Disclaimer

ORBIFLY MET'MAP TEAM :

Programming & Development : Alexandra Zaïnal
Concept & original design : Baudouin d'Aumeries
Assistance for programming : Marc-Olivier Méhu
Technical & hardware support : Manuel Goepfert

Contact : metmap@orbifly.com




SOURCES & CREDITS :

   NOAA       Earth
Advisory